< Typhoon 198919 1989 Season Typhoon 198921 >
Typhoon 198920 (TIP)
General InformationTrack Information on Google MapsDetailed Wind InformationList of All Images || Disaster Info.ResourceGoogle EarthGE AnimationAtom FeedGeoJSON
Detalied Best Track (Time Zone = UTC)
Year Month Day Hour Lat. Long. Pressure (hPa) Wind (kt) Class Image Chart
1989 9 7 00 17.0 148.0 1004 0 2 Image Chart
1989 9 7 06 17.0 148.0 1004 0 2 Image Chart
1989 9 7 12 17.5 147.5 1004 0 2 Image Chart
1989 9 7 18 18.0 148.0 1004 0 2 Image Chart
1989 9 8 00 18.5 149.0 1004 0 2 Image Chart
1989 9 8 06 18.0 150.0 1000 0 2 Image Chart
1989 9 8 12 18.5 151.5 1000 0 2 Image Chart
1989 9 8 18 19.5 152.5 1000 0 2 Image Chart
1989 9 9 00 20.5 153.6 998 35 3 Image Chart
1989 9 9 06 21.8 154.9 994 40 3 Image Chart
1989 9 9 12 24.3 155.1 992 40 3 Image Chart
1989 9 9 18 26.6 153.6 990 45 3 Image Chart
1989 9 10 00 28.0 152.2 990 45 3 Image Chart
1989 9 10 06 28.6 151.0 990 45 3 Image Chart
1989 9 10 12 29.1 150.0 985 50 4 Image Chart
1989 9 10 18 29.7 150.3 985 50 4 Image Chart
1989 9 11 00 30.3 150.7 985 50 4 Image Chart
1989 9 11 06 31.5 151.0 985 50 4 Image Chart
1989 9 11 12 33.1 151.2 985 50 4 Image Chart
1989 9 11 18 34.5 151.4 985 50 4 Image Chart
1989 9 12 00 35.1 151.8 985 50 4 Image Chart
1989 9 12 06 35.8 152.4 985 50 4 Image Chart
1989 9 12 12 36.3 154.1 990 45 3 Image Chart
1989 9 12 18 37.0 156.0 990 45 3 Image Chart
1989 9 13 00 37.3 158.5 992 45 3 Image Chart
1989 9 13 06 37.5 161.0 992 45 3 Image Chart
1989 9 13 12 37.0 163.0 994 40 3 Image Chart
1989 9 13 18 36.0 165.0 994 40 3 Image Chart
1989 9 14 00 35.8 167.4 996 40 3 Image Chart
1989 9 14 06 36.0 169.6 998 35 3 Image Chart
1989 9 14 12 37.5 172.1 998 0 6 Image Chart
1989 9 14 18 42.0 176.0 996 0 6 Image Chart
1989 9 15 00 47.0 178.0 988 0 6 Image Chart
1989 9 15 06 50.0 178.0 984 0 6 Image Chart
1989 9 15 12 52.0 178.0 984 0 6 Image Chart
1989 9 15 18 54.0 180.2 986 0 6 Image Chart
Japan Meteorological Agency Best Track Data | Correction Date : 1992-10-21
< Typhoon 198919 1989 Season Typhoon 198921 >

Help